Terminal Aerodrome Forecast
Issued by NWS

Home | Current Version | Previous Version | Text Only | Print | Product List | Glossary On
Versions: 1 2 3 4 5 6 7 8 9 10 11 12 13 14 15 16 17 18 19 20
000
FTUS43 KMQT 300331 AAA
TAFSAW
TAF AMD
KSAW 300331Z 3004/3024 VRB03KT 6SM -SHRA BR SCT015 OVC025
      TEMPO 3004/3006 5SM BR SCT008 BKN015
     FM300600 35003KT 5SM -SHRA BR SCT004 OVC008
     FM300800 35005KT 1SM -SHRA BR OVC003
     FM301300 36011G18KT 6SM -SHRA OVC003
     FM301700 36011G18KT P6SM VCSH OVC008
     FM302000 36011G18KT P6SM OVC012=

USA.gov is the U.S. government's official web portal to all federal, state and local government web resources and services.